Terminal Aerodrome Forecast
Issued by NWS

Current Version | Previous Version | Text Only | Print | Product List | Glossary On
Versions: 1 2 3 4 5 6 7 8 9 10 11 12 13 14
000
FTUS42 KMLB 282346
TAFSFB
TAF
KSFB 282346Z 2900/2924 07008KT P6SM VCSH SCT035 SCT250
      TEMPO 2900/2902 -SHRA BKN035
     FM290200 05006KT P6SM FEW030 SCT250
     FM291500 08009KT P6SM VCSH SCT035 BKN060 BKN250
     FM291800 08012G18KT P6SM VCTS BKN040CB BKN080=

USA.gov is the U.S. government's official web portal to all federal, state and local government web resources and services.